Stanton, Wisconsin
Current Conditions -  °F | °C
As of 11:10 AM on Friday 24 Oct 2014 (Local Time) from KRNH Reporting Station
Scattered Clouds Scattered Clouds  
Wind Chill: 58°   Ceiling: Unl
Heat Index: 58°   Visibility: 10mi
Dew Point: 52°   Wind: 14mph
Humidity: 80%   Direction: 170°S
Pressure: 29.89"   Gusts: NA
Location:  45.1804°N, 92.551°W
Report Text: KRNH 241610Z AUTO 17012KT 10SM SCT040 14/11 A2989 RMK AO2 T01440110
Loading
Personal Weather Stations






























Interactive Weather Map
Tropical Storm Tracking
New forecast layout! Learn more

10-Day Weather Forecast

Advertisements
Track Severe Weather on mobile